Time;durP1;ratioP1;P1;durP2;ratioP2;P2;SDS_P1;SDS_P2;PMS_P1;PMS_P2;Temp;Humidity;BMP_temperature;BMP_pressure;BME280_temperature;BME280_humidity;BME280_pressure;Samples;Min_cycle;Max_cycle;Signal;HPM_P1;HPM_P2
2023/09/02 00:00:35;;;;;;;;;;;;;;;24.23;49.20;100182.19;4463516;32;34271;-76
2023/09/02 00:03:02;;;;;;;;;;;;;;;22.74;53.40;100185.91;4466673;32;33931;-76
2023/09/02 00:05:30;;;;;;;;;;;;;;;22.96;53.08;100186.81;4468543;32;35116;-76
2023/09/02 00:07:57;;;;;;;;;;;;;;;22.62;54.23;100186.78;4466428;32;33610;-76
2023/09/02 00:10:24;;;;;;;;;;;;;;;22.53;54.69;100187.62;4464312;32;34961;-76
2023/09/02 00:12:52;;;;;;;;;;;;;;;23.33;51.86;100187.72;4466656;32;33927;-76
2023/09/02 00:15:19;;;;;;;;;;;;;;;24.35;48.82;100187.41;4467815;32;34559;-76
2023/09/02 00:17:47;;;;;;;;;;;;;;;23.86;50.32;100193.78;4469879;32;31943;-76
2023/09/02 00:20:14;;;;;;;;;;;;;;;23.24;51.93;100197.41;4469593;32;34784;-75
2023/09/02 00:22:42;;;;;;;;;;;;;;;23.03;52.98;100187.72;4469580;32;34074;-76
2023/09/02 00:25:09;;;;;;;;;;;;;;;23.54;51.27;100183.25;4468773;32;34353;-76
2023/09/02 00:27:36;;;;;;;;;;;;;;;23.60;51.19;100191.16;4469859;32;34267;-76
2023/09/02 00:30:04;;;;;;;;;;;;;;;23.00;52.56;100192.97;4469876;32;33665;-75
2023/09/02 00:32:33;;;;;;;;;;;;;;;23.10;52.71;100190.38;4469920;32;34065;-76
2023/09/02 00:35:01;;;;;;;;;;;;;;;23.78;50.22;100178.78;4469638;32;34434;-76
2023/09/02 00:37:28;;;;;;;;;;;;;;;24.14;49.19;100178.69;4469753;32;33687;-76
2023/09/02 00:39:56;;;;;;;;;;;;;;;24.04;49.24;100182.25;4469580;32;34371;-76
2023/09/02 00:42:23;;;;;;;;;;;;;;;24.50;48.00;100171.41;4468942;32;34845;-76
2023/09/02 00:44:51;;;;;;;;;;;;;;;24.37;48.05;100172.37;4458962;32;34938;-76
2023/09/02 00:47:18;;;;;;;;;;;;;;;24.28;48.24;100165.38;4469323;32;33714;-76
2023/09/02 00:49:45;;;;;;;;;;;;;;;24.24;48.61;100168.03;4469744;32;33983;-76
2023/09/02 00:52:13;;;;;;;;;;;;;;;23.20;51.81;100170.09;4462147;32;35064;-76
2023/09/02 00:54:40;;;;;;;;;;;;;;;24.03;49.40;100167.28;4465998;32;34160;-76
2023/09/02 00:57:08;;;;;;;;;;;;;;;23.05;52.10;100175.41;4461660;32;34301;-76
2023/09/02 00:59:35;;;;;;;;;;;;;;;22.79;53.19;100189.41;4468813;32;34974;-76
2023/09/02 01:02:03;;;;;;;;;;;;;;;23.04;52.72;100186.84;4460887;32;34409;-76
2023/09/02 01:04:32;;;;;;;;;;;;;;;22.38;54.59;100183.19;4463901;32;34447;-76
2023/09/02 01:06:59;;;;;;;;;;;;;;;22.47;54.54;100189.37;4469290;32;34028;-76
2023/09/02 01:09:26;;;;;;;;;;;;;;;22.85;53.45;100189.44;4469331;32;34753;-76
2023/09/02 01:11:53;;;;;;;;;;;;;;;23.09;52.30;100182.44;4466191;32;34187;-76
2023/09/02 01:14:21;;;;;;;;;;;;;;;22.88;53.02;100189.44;4467396;32;34360;-76
2023/09/02 01:16:48;;;;;;;;;;;;;;;22.52;54.02;100191.16;4468072;32;34185;-76
2023/09/02 01:19:17;;;;;;;;;;;;;;;23.44;51.62;100200.03;4449128;32;34065;-76
2023/09/02 01:22:03;;;;;;;;;;;;;;;22.35;54.57;100203.44;4466264;32;32701;-76
2023/09/02 01:24:37;;;;;;;;;;;;;;;22.25;55.18;100202.53;4466548;32;33146;-76
2023/09/02 01:27:15;;;;;;;;;;;;;;;22.09;55.97;100196.25;4457840;32;33149;-76
2023/09/02 01:30:02;;;;;;;;;;;;;;;23.21;52.34;100190.34;4462818;32;33898;-76
2023/09/02 01:32:33;;;;;;;;;;;;;;;22.83;53.38;100185.94;4456689;32;34477;-76
2023/09/02 01:35:05;;;;;;;;;;;;;;;22.48;53.92;100189.37;4455337;32;34419;-76
2023/09/02 01:37:33;;;;;;;;;;;;;;;23.49;51.52;100185.94;4467994;32;33488;-76
2023/09/02 01:40:01;;;;;;;;;;;;;;;23.13;52.43;100184.19;4466002;32;34069;-76
2023/09/02 01:42:28;;;;;;;;;;;;;;;23.89;49.92;100187.59;4464981;32;34004;-76
2023/09/02 01:44:56;;;;;;;;;;;;;;;23.01;52.32;100189.47;4444496;32;34307;-76
2023/09/02 01:47:24;;;;;;;;;;;;;;;22.92;52.85;100188.56;4467797;32;33604;-76
2023/09/02 01:49:52;;;;;;;;;;;;;;;22.82;53.52;100185.94;4464408;32;33772;-77
2023/09/02 01:52:19;;;;;;;;;;;;;;;23.27;51.85;100186.81;4466903;32;33910;-76
2023/09/02 01:54:46;;;;;;;;;;;;;;;23.13;52.03;100189.47;4452244;32;32745;-76
2023/09/02 01:57:15;;;;;;;;;;;;;;;23.69;50.13;100191.16;4456383;32;34329;-76
2023/09/02 01:59:43;;;;;;;;;;;;;;;23.82;49.56;100188.53;4464586;32;94260;-76
2023/09/02 02:02:10;;;;;;;;;;;;;;;23.30;51.12;100187.72;4467225;32;33755;-76
2023/09/02 02:04:38;;;;;;;;;;;;;;;23.54;50.01;100191.19;4468956;32;32829;-76
2023/09/02 02:07:06;;;;;;;;;;;;;;;23.67;49.71;100192.94;4466920;32;31896;-76
2023/09/02 02:09:35;;;;;;;;;;;;;;;23.60;50.01;100191.16;4462194;32;34324;-76
2023/09/02 02:12:03;;;;;;;;;;;;;;;24.00;48.81;100191.09;4461673;32;34077;-76
2023/09/02 02:14:32;;;;;;;;;;;;;;;23.75;49.39;100199.06;4465713;32;34546;-76
2023/09/02 02:17:00;;;;;;;;;;;;;;;23.08;51.45;100185.94;4466482;32;34187;-76
2023/09/02 02:19:28;;;;;;;;;;;;;;;21.91;55.59;100196.19;4468769;32;34113;-76
2023/09/02 02:21:55;;;;;;;;;;;;;;;22.49;53.89;100196.44;4467465;32;34068;-76
2023/09/02 02:24:23;;;;;;;;;;;;;;;22.93;52.79;100192.97;4468748;32;34141;-76
2023/09/02 02:26:50;;;;;;;;;;;;;;;22.67;53.35;100194.69;4468798;32;33832;-76
2023/09/02 02:29:21;;;;;;;;;;;;;;;22.92;52.42;100196.47;4468219;32;34107;-76
2023/09/02 02:31:48;;;;;;;;;;;;;;;22.93;52.36;100192.09;4467742;32;34753;-76
2023/09/02 02:34:16;;;;;;;;;;;;;;;22.65;53.15;100194.69;4468888;32;34903;-76
2023/09/02 02:36:43;;;;;;;;;;;;;;;23.27;51.23;100190.34;4461322;32;33445;-76
2023/09/02 02:39:11;;;;;;;;;;;;;;;22.90;52.33;100197.38;4467452;32;34078;-76
2023/09/02 02:41:38;;;;;;;;;;;;;;;23.01;52.56;100197.38;4465646;32;33911;-76
2023/09/02 02:44:05;;;;;;;;;;;;;;;23.04;52.18;100200.03;4468831;32;35394;-76
2023/09/02 02:46:33;;;;;;;;;;;;;;;22.62;53.13;100196.44;4466433;32;33342;-76
2023/09/02 02:49:00;;;;;;;;;;;;;;;22.77;52.64;100196.47;4467819;32;34344;-76
2023/09/02 02:51:28;;;;;;;;;;;;;;;22.71;53.10;100193.81;4468034;32;35113;-76
2023/09/02 02:53:55;;;;;;;;;;;;;;;21.79;55.81;100203.16;4468354;32;34941;-76
2023/09/02 02:56:22;;;;;;;;;;;;;;;22.76;52.88;100192.94;4468882;32;34123;-76
2023/09/02 02:58:50;;;;;;;;;;;;;;;23.07;51.53;100194.78;4468095;32;34968;-76
2023/09/02 03:01:17;;;;;;;;;;;;;;;23.33;50.74;100192.09;4468307;32;33745;-76
2023/09/02 03:03:45;;;;;;;;;;;;;;;23.32;50.74;100196.50;4467421;32;34929;-76
2023/09/02 03:06:18;;;;;;;;;;;;;;;23.22;51.14;100194.78;4468474;32;34407;-76
2023/09/02 03:08:45;;;;;;;;;;;;;;;22.97;52.00;100192.09;4464751;32;34002;-76
2023/09/02 03:11:12;;;;;;;;;;;;;;;23.18;51.47;100195.66;4468283;32;34427;-76
2023/09/02 03:13:40;;;;;;;;;;;;;;;23.04;51.66;100195.63;4467302;32;32915;-76
2023/09/02 03:16:08;;;;;;;;;;;;;;;23.04;51.93;100194.75;4468361;32;34242;-76
2023/09/02 03:18:36;;;;;;;;;;;;;;;23.17;51.64;100199.16;4467964;32;34102;-76
2023/09/02 03:21:04;;;;;;;;;;;;;;;23.35;50.98;100193.88;4469765;32;34088;-76
2023/09/02 03:23:34;;;;;;;;;;;;;;;23.73;49.57;100198.19;4469295;32;35172;-76
2023/09/02 03:26:12;;;;;;;;;;;;;;;23.53;49.95;100197.38;4470115;32;33402;-76
2023/09/02 03:28:39;;;;;;;;;;;;;;;23.11;51.86;100207.09;4468766;32;34668;-76
2023/09/02 03:31:07;;;;;;;;;;;;;;;23.46;50.66;100192.97;4469839;32;34305;-76
2023/09/02 03:33:35;;;;;;;;;;;;;;;22.95;52.32;100191.22;4470056;32;35166;-76
2023/09/02 03:36:03;;;;;;;;;;;;;;;22.84;52.43;100195.59;4470162;32;34328;-76
2023/09/02 03:38:30;;;;;;;;;;;;;;;22.72;52.67;100193.81;4469829;32;33812;-76
2023/09/02 03:40:58;;;;;;;;;;;;;;;21.74;56.07;100199.59;4469381;32;34802;-76
2023/09/02 03:43:25;;;;;;;;;;;;;;;22.71;52.93;100193.81;4469683;32;35098;-76
2023/09/02 03:45:53;;;;;;;;;;;;;;;22.90;52.51;100198.25;4470057;32;33403;-76
2023/09/02 03:48:20;;;;;;;;;;;;;;;23.08;51.91;100191.22;4468536;32;33898;-76
2023/09/02 03:51:11;;;;;;;;;;;;;;;23.19;51.49;100197.41;4469122;32;33526;-76
2023/09/02 03:53:39;;;;;;;;;;;;;;;22.72;52.78;100190.31;4462487;32;34611;-76
2023/09/02 03:56:06;;;;;;;;;;;;;;;23.14;51.32;100191.22;4468557;32;33474;-76
2023/09/02 03:58:34;;;;;;;;;;;;;;;23.24;50.63;100195.66;4468490;32;33458;-76
2023/09/02 04:01:03;;;;;;;;;;;;;;;22.81;52.70;100200.88;4469747;32;34196;-76
2023/09/02 04:03:36;;;;;;;;;;;;;;;22.11;54.60;100198.91;4470206;32;35230;-76
2023/09/02 04:06:04;;;;;;;;;;;;;;;22.47;53.91;100198.19;4469316;32;33424;-76
2023/09/02 04:08:34;;;;;;;;;;;;;;;22.77;53.05;100201.75;4469224;32;34208;-76
2023/09/02 04:11:04;;;;;;;;;;;;;;;21.52;56.93;100210.91;4469704;32;34820;-76
2023/09/02 04:13:32;;;;;;;;;;;;;;;21.68;56.53;100212.75;4468722;32;33482;-76
2023/09/02 04:16:02;;;;;;;;;;;;;;;22.77;53.26;100207.03;4469323;32;33512;-76
2023/09/02 04:18:30;;;;;;;;;;;;;;;22.51;54.11;100210.50;4469654;32;34304;-76
2023/09/02 04:20:59;;;;;;;;;;;;;;;23.06;52.34;100219.41;4467760;32;35071;-76
2023/09/02 04:23:26;;;;;;;;;;;;;;;21.99;55.00;100218.19;4469650;32;34690;-76
2023/09/02 04:25:55;;;;;;;;;;;;;;;23.36;50.99;100211.50;4469917;32;33743;-76
2023/09/02 04:28:23;;;;;;;;;;;;;;;23.63;49.85;100217.63;4469420;32;34904;-76
2023/09/02 04:30:56;;;;;;;;;;;;;;;23.76;49.50;100218.50;4468113;32;34931;-76
2023/09/02 04:33:24;;;;;;;;;;;;;;;23.87;49.52;100219.34;4470106;32;34506;-76
2023/09/02 04:35:52;;;;;;;;;;;;;;;22.01;55.03;100227.00;4469841;32;33495;-76
2023/09/02 04:38:22;;;;;;;;;;;;;;;22.75;52.84;100219.34;4469531;32;32636;-76
2023/09/02 04:40:49;;;;;;;;;;;;;;;22.66;53.07;100225.50;4469062;32;33789;-76
2023/09/02 04:43:17;;;;;;;;;;;;;;;22.36;54.66;100231.56;4469496;32;33803;-76
2023/09/02 04:45:45;;;;;;;;;;;;;;;23.23;52.26;100228.22;4468776;32;34134;-76
2023/09/02 04:48:13;;;;;;;;;;;;;;;23.51;51.28;100228.22;4469284;32;34853;-76
2023/09/02 04:50:43;;;;;;;;;;;;;;;24.02;49.79;100229.00;4469219;32;35070;-76
2023/09/02 04:53:11;;;;;;;;;;;;;;;24.11;49.13;100225.47;4459696;32;34359;-76
2023/09/02 04:55:39;;;;;;;;;;;;;;;24.51;48.06;100231.50;4469615;32;33449;-76
2023/09/02 04:58:07;;;;;;;;;;;;;;;23.46;50.73;100237.91;4460865;32;34315;-76
2023/09/02 05:00:35;;;;;;;;;;;;;;;22.73;53.24;100226.38;4469112;32;34827;-76
2023/09/02 05:03:03;;;;;;;;;;;;;;;23.16;51.95;100222.09;4469296;32;34443;-76
2023/09/02 05:05:31;;;;;;;;;;;;;;;22.97;52.60;100228.22;4469786;32;34323;-76
2023/09/02 05:07:59;;;;;;;;;;;;;;;23.70;50.18;100229.06;4469426;32;33678;-76
2023/09/02 05:10:27;;;;;;;;;;;;;;;23.09;52.33;100230.00;4453487;32;34969;-75
2023/09/02 05:12:54;;;;;;;;;;;;;;;22.87;53.14;100240.53;4469354;32;35172;-76
2023/09/02 05:15:21;;;;;;;;;;;;;;;23.44;51.85;100239.69;4469654;32;33514;-76
2023/09/02 05:17:50;;;;;;;;;;;;;;;23.81;50.79;100237.00;4469243;32;33823;-76
2023/09/02 05:20:17;;;;;;;;;;;;;;;23.09;52.86;100235.28;4467807;32;34041;-76
2023/09/02 05:22:44;;;;;;;;;;;;;;;23.05;52.71;100239.69;4468401;32;34480;-76
2023/09/02 05:25:13;;;;;;;;;;;;;;;23.10;52.76;100242.31;4469210;32;33320;-76
2023/09/02 05:27:41;;;;;;;;;;;;;;;23.15;52.73;100244.09;4468574;32;34668;-76
2023/09/02 05:30:09;;;;;;;3.80;2.25;;;;;;;24.69;48.45;100238.44;4468449;32;35477;-76
2023/09/02 05:32:37;;;;;;;;;;;;;;;25.22;46.82;100236.31;4465634;32;34736;-76
2023/09/02 05:35:04;;;;;;;;;;;;;;;24.83;48.02;100233.03;4467868;32;33063;-76
2023/09/02 05:37:31;;;;;;;;;;;;;;;24.23;49.86;100235.12;4468727;32;34021;-76
2023/09/02 05:39:59;;;;;;;;;;;;;;;23.58;52.17;100237.91;4468663;32;34940;-77
2023/09/02 05:42:26;;;;;;;;;;;;;;;23.61;52.24;100244.97;4467336;32;34436;-76
2023/09/02 05:44:53;;;;;;;;;;;;;;;24.92;48.78;100240.94;4468371;32;34203;-76
2023/09/02 05:47:21;;;;;;;;;;;;;;;25.27;47.76;100239.81;4468744;32;34600;-76
2023/09/02 05:49:48;;;;;;;;;;;;;;;24.88;49.06;100246.28;4468398;32;34271;-76
2023/09/02 05:52:15;;;;;;;;;;;;;;;24.61;49.90;100234.06;4460696;32;32807;-76
2023/09/02 05:54:43;;;;;;;;;;;;;;;25.21;48.60;100244.28;4469550;32;33626;-76
2023/09/02 05:57:10;;;;;;;;;;;;;;;25.23;48.62;100237.22;4455823;32;35024;-76
2023/09/02 05:59:37;;;;;;;;;;;;;;;25.77;47.52;100236.69;4468610;32;34235;-76
2023/09/02 06:02:05;;;;;;;;;;;;;;;25.92;47.37;100238.34;4469152;32;35016;-76
2023/09/02 06:04:32;;;;;;;;;;;;;;;26.19;46.75;100231.81;4469010;32;34392;-76
2023/09/02 06:07:02;;;;;;;;;;;;;;;25.57;48.25;100232.47;4469126;32;34245;-76
2023/09/02 06:09:30;;;;;;;;;;;;;;;25.81;47.89;100241.09;4457755;32;33588;-76
2023/09/02 06:11:57;;;;;;;;;;;;;;;25.89;47.66;100240.09;4462432;32;34580;-76
2023/09/02 06:14:25;;;;;;;;;;;;;;;25.88;47.86;100242.75;4467775;32;34325;-76
2023/09/02 06:16:52;;;;;;;;;;;;;;;26.16;47.29;100242.50;4457023;32;34241;-76
2023/09/02 06:19:19;;;;;;;;;;;;;;;26.24;47.11;100240.63;4468390;32;33996;-76
2023/09/02 06:21:47;;;;;;;;;;;;;;;26.36;46.82;100240.44;4468858;32;34404;-76
2023/09/02 06:24:14;;;;;;;;;;;;;;;26.17;47.41;100244.25;4467669;32;32413;-76
2023/09/02 06:26:41;;;;;;;;;;;;;;;26.08;47.73;100251.41;4467424;32;34098;-76
2023/09/02 06:29:09;;;;;;;;;;;;;;;26.51;46.85;100251.78;4463557;32;33993;-76
2023/09/02 06:31:36;;;;;;;;;;;;;;;26.19;47.47;100261.03;4464654;32;34992;-76
2023/09/02 06:34:04;;;;;;;;;;;;;;;26.20;47.51;100258.34;4467111;32;33575;-76
2023/09/02 06:36:31;;;;;;;;;;;;;;;26.37;47.23;100252.84;4461791;32;34997;-76
2023/09/02 06:38:58;;;;;;;;;;;;;;;26.52;46.88;100258.84;4461460;32;33827;-76
2023/09/02 06:41:26;;;;;;;;;;;;;;;26.70;46.64;100261.28;4467984;32;34400;-76
2023/09/02 06:43:53;;;;;;;;;;;;;;;26.52;47.17;100257.09;4459225;32;33599;-76
2023/09/02 06:46:20;;;;;;;;;;;;;;;26.79;46.45;100260.25;4463473;32;35093;-76
2023/09/02 06:48:48;;;;;;;;;;;;;;;26.68;46.63;100258.66;4467832;32;34108;-76
2023/09/02 06:51:16;;;;;;;;;;;;;;;26.66;46.75;100262.25;4464632;32;34446;-76
2023/09/02 06:53:43;;;;;;;;;;;;;;;26.93;46.25;100257.44;4463091;32;33199;-76
2023/09/02 06:56:13;;;;;;;;;;;;;;;25.89;48.47;100268.41;4466542;32;34792;-76
2023/09/02 06:58:42;;;;;;;;;;;;;;;26.78;46.64;100263.84;4449128;32;33549;-76
2023/09/02 07:01:16;;;;;;;;;;;;;;;26.84;45.62;100259.31;4464751;32;34093;-76
2023/09/02 07:03:44;;;;;;;;;;;;;;;27.10;45.38;100265.13;4463764;32;31790;-76
2023/09/02 07:06:15;;;;;;;;;;;;;;;27.21;45.47;100264.03;4467639;32;35043;-76
2023/09/02 07:08:43;;;;;;;;;;;;;;;26.93;45.75;100268.94;4466796;32;34499;-76
2023/09/02 07:11:13;;;;;;;;;;;;;;;26.90;45.89;100265.44;4467945;32;35246;-76
2023/09/02 07:13:45;;;;;;;;;;;;;;;27.16;45.69;100265.91;4467086;32;33337;-76
2023/09/02 07:16:15;;;;;;;;;;;;;;;27.58;44.87;100263.47;4468100;32;35114;-76
2023/09/02 07:18:43;;;;;;;;;;;;;;;27.73;44.84;100266.75;4467976;32;34093;-76
2023/09/02 07:21:10;;;;;;;;;;;;;;;28.04;44.53;100262.62;4467413;32;34938;-76
2023/09/02 07:23:37;;;;;;;;;;;;;;;27.85;44.80;100277.16;4467969;32;33733;-76
2023/09/02 07:26:05;;;;;;;6.00;3.50;;;;;;;28.20;44.23;100276.53;4465348;32;34228;-76
2023/09/02 07:28:33;;;;;;;7.15;3.58;;;;;;;28.71;42.21;100274.59;4465817;32;34514;-77
2023/09/02 07:31:01;;;;;;;4.95;3.28;;;;;;;28.54;42.63;100269.62;4467159;32;33937;-78
2023/09/02 07:33:30;;;;;;;5.78;3.47;;;;;;;28.77;42.54;100275.34;4468189;32;33411;-76
2023/09/02 07:35:57;;;;;;;;;;;;;;;28.51;42.98;100267.00;4465477;32;34713;-77
2023/09/02 07:38:25;;;;;;;6.12;3.45;;;;;;;29.48;41.01;100268.34;4466468;32;33664;-77
2023/09/02 07:40:53;;;;;;;5.62;2.92;;;;;;;29.66;40.45;100279.44;4464662;32;34934;-78
2023/09/02 07:43:21;;;;;;;5.82;2.83;;;;;;;30.25;39.45;100276.97;4467490;32;33694;-82
2023/09/02 07:45:50;;;;;;;65.47;39.88;;;;;;;30.41;39.17;100272.06;4466961;32;34153;-78
2023/09/02 07:48:18;;;;;;;46.40;29.45;;;;;;;31.10;37.69;100269.97;4463443;32;33746;-78
2023/09/02 07:50:45;;;;;;;8.10;4.82;;;;;;;31.01;37.64;100272.94;4463615;32;34243;-79
2023/09/02 07:53:13;;;;;;;12.27;6.35;;;;;;;30.99;38.10;100274.78;4462106;32;33334;-78
2023/09/02 07:55:41;;;;;;;7.68;4.65;;;;;;;30.06;39.91;100283.75;4467051;32;34445;-75
2023/09/02 07:58:09;;;;;;;14.13;6.80;;;;;;;30.57;39.31;100277.81;4466868;32;33525;-75
2023/09/02 08:00:37;;;;;;;8.80;5.95;;;;;;;30.98;38.36;100273.00;4467014;32;33841;-78
2023/09/02 08:03:06;;;;;;;7.78;3.58;;;;;;;31.55;37.45;100279.22;4466557;32;34381;-76
2023/09/02 08:05:38;;;;;;;7.95;3.47;;;;;;;31.55;36.96;100279.22;4462512;32;33919;-77
2023/09/02 08:08:06;;;;;;;5.03;2.37;;;;;;;32.15;35.70;100274.41;4469445;32;33740;-78
2023/09/02 08:10:34;;;;;;;6.72;2.28;;;;;;;32.26;35.60;100272.22;4469325;32;34350;-77
2023/09/02 08:13:06;;;;;;;5.45;2.20;;;;;;;32.46;35.31;100271.44;4469388;32;34311;-76
2023/09/02 08:15:36;;;;;;;7.78;2.47;;;;;;;32.57;34.97;100276.44;4469426;32;33445;-78
2023/09/02 08:18:04;;;;;;;5.00;2.60;;;;;;;33.01;33.85;100276.50;4462791;32;34746;-77
2023/09/02 08:20:31;;;;;;;4.12;1.90;;;;;;;32.95;33.03;100271.34;4464715;32;34172;-77
2023/09/02 08:22:59;;;;;;;3.75;1.73;;;;;;;32.69;33.53;100275.09;4468834;32;33174;-76
2023/09/02 08:25:27;;;;;;;4.55;1.58;;;;;;;33.59;32.90;100281.28;4469416;32;34633;-78
2023/09/02 08:27:54;;;;;;;3.92;1.90;;;;;;;33.78;32.75;100284.03;4468947;32;33475;-78
2023/09/02 08:30:22;;;;;;;3.75;2.37;;;;;;;33.77;32.35;100285.00;4466694;32;33525;-78
2023/09/02 08:32:49;;;;;;;;;;;;;;;33.99;31.37;100286.72;4467709;32;33746;-77
2023/09/02 08:35:17;;;;;;;3.85;2.12;;;;;;;34.58;30.71;100275.06;4469219;32;33869;-77
2023/09/02 08:37:45;;;;;;;4.15;2.10;;;;;;;34.67;30.95;100284.53;4468748;32;34749;-77
2023/09/02 08:40:14;;;;;;;5.30;2.55;;;;;;;35.27;30.14;100287.03;4466510;32;33434;-79
2023/09/02 08:42:41;;;;;;;5.90;2.00;;;;;;;35.55;29.47;100283.81;4469220;32;33713;-78
2023/09/02 08:45:11;;;;;;;4.40;2.12;;;;;;;35.53;29.75;100279.47;4466715;32;33599;-79
2023/09/02 08:47:40;;;;;;;4.90;1.98;;;;;;;35.70;29.84;100278.59;4460063;32;34278;-77
2023/09/02 08:50:08;;;;;;;3.97;1.95;;;;;;;35.86;28.98;100276.84;4468650;32;34059;-77
2023/09/02 08:52:37;;;;;;;4.55;2.00;;;;;;;36.27;29.32;100281.00;4458169;32;32132;-77
2023/09/02 08:55:08;;;;;;;6.25;2.30;;;;;;;36.21;29.20;100283.06;4464634;32;34045;-76
2023/09/02 08:57:39;;;;;;;5.25;1.85;;;;;;;36.36;29.16;100277.81;4449325;32;33304;-76
2023/09/02 09:00:07;;;;;;;4.50;2.08;;;;;;;36.32;28.74;100281.63;4463183;32;34189;-77
2023/09/02 09:02:38;;;;;;;3.37;1.50;;;;;;;36.57;28.40;100276.62;4468726;32;33682;-78
2023/09/02 09:05:07;;;;;;;3.40;1.67;;;;;;;36.70;28.87;100284.03;4467587;32;33754;-77
2023/09/02 09:07:36;;;;;;;4.43;1.62;;;;;;;36.57;28.51;100279.31;4468300;32;33367;-78
2023/09/02 09:10:05;;;;;;;3.40;1.80;;;;;;;37.06;28.30;100274.81;4458469;32;34296;-77
2023/09/02 09:12:33;;;;;;;3.50;1.62;;;;;;;37.21;27.55;100282.03;4457299;32;34432;-78
2023/09/02 09:15:02;;;;;;;5.37;1.83;;;;;;;37.79;26.75;100280.41;4465209;32;33757;-77
2023/09/02 09:17:33;;;;;;;4.82;2.12;;;;;;;37.67;26.95;100282.03;4454928;32;31665;-78
2023/09/02 09:20:01;;;;;;;3.33;1.62;;;;;;;37.68;27.20;100282.91;4466170;32;34841;-77
2023/09/02 09:22:28;;;;;;;4.70;2.00;;;;;;;38.40;26.66;100281.13;4457818;32;32819;-78
2023/09/02 09:24:56;;;;;;;5.25;1.83;;;;;;;38.05;26.49;100276.06;4462010;32;34740;-77
2023/09/02 09:27:25;;;;;;;6.25;1.80;;;;;;;38.10;26.99;100284.81;4466431;32;33579;-77
2023/09/02 09:29:53;;;;;;;3.12;1.60;;;;;;;38.64;25.45;100280.56;4462685;32;34329;-77
2023/09/02 09:32:23;;;;;;;3.10;1.83;;;;;;;38.38;26.19;100280.34;4465035;32;33746;-78
2023/09/02 09:34:51;;;;;;;4.68;1.85;;;;;;;38.19;26.33;100285.19;4443768;32;32846;-78
2023/09/02 09:37:20;;;;;;;3.78;1.70;;;;;;;38.29;26.10;100283.69;4465043;32;32304;-78
2023/09/02 09:39:51;;;;;;;3.30;1.40;;;;;;;38.10;26.86;100284.81;4465239;32;34161;-78
2023/09/02 09:42:32;;;;;;;;;;;;;;;38.41;25.78;100277.47;4466663;32;33379;-78
2023/09/02 09:45:00;;;;;;;4.65;1.30;;;;;;;38.87;25.89;100279.94;4463520;32;32554;-78
2023/09/02 09:47:28;;;;;;;4.65;1.75;;;;;;;38.94;25.59;100272.25;4458079;32;34726;-78
2023/09/02 09:50:11;;;;;;;4.45;1.70;;;;;;;38.10;24.71;100278.53;4459529;32;33793;-78
2023/09/02 09:52:38;;;;;;;;;;;;;;;38.07;26.42;100282.28;4466852;32;33697;-78
2023/09/02 09:55:06;;;;;;;;;;;;;;;38.68;25.51;100276.69;4461277;32;33502;-78
2023/09/02 09:57:37;;;;;;;4.20;1.20;;;;;;;39.19;25.31;100279.62;4464980;32;33973;-78
2023/09/02 10:00:06;;;;;;;3.17;1.30;;;;;;;39.15;24.83;100278.13;4461022;32;35712;-79
2023/09/02 10:02:34;;;;;;;;;;;;;;;39.55;24.11;100271.88;4465966;32;33155;-78
2023/09/02 10:05:02;;;;;;;;;;;;;;;39.47;24.02;100267.84;4467041;32;33883;-77
2023/09/02 10:07:31;;;;;;;;;;;;;;;39.42;23.98;100274.50;4468075;32;34908;-77
2023/09/02 10:10:00;;;;;;;;;;;;;;;39.10;23.93;100275.72;4466875;32;33750;-78
2023/09/02 10:12:35;;;;;;;;;;;;;;;39.09;24.38;100267.69;4465776;32;33579;-77
2023/09/02 10:15:06;;;;;;;;;;;;;;;39.47;23.43;100262.41;4463816;32;34030;-80
2023/09/02 10:17:35;;;;;;;;;;;;;;;39.23;23.90;100264.91;4468431;32;33970;-77
2023/09/02 10:20:02;;;;;;;;;;;;;;;39.06;24.42;100265.19;4466479;32;34471;-77
2023/09/02 10:22:31;;;;;;;;;;;;;;;39.56;23.88;100266.31;4466183;32;33370;-77
2023/09/02 10:25:10;;;;;;;;;;;;;;;39.31;24.19;100268.00;4468251;32;33754;-77
2023/09/02 10:27:42;;;;;;;3.37;1.23;;;;;;;39.54;23.34;100262.84;4465735;32;33831;-78
2023/09/02 10:30:18;;;;;;;;;;;;;;;39.67;23.49;100263.72;4458493;32;34179;-78
2023/09/02 10:32:49;;;;;;;;;;;;;;;39.74;22.62;100257.91;4457539;32;33459;-78
2023/09/02 10:35:16;;;;;;;;;;;;;;;39.39;22.89;100263.87;4466863;32;34991;-77
2023/09/02 10:37:45;;;;;;;;;;;;;;;39.62;22.42;100263.19;4469169;32;35277;-78
2023/09/02 10:40:15;;;;;;;;;;;;;;;39.81;23.19;100261.91;4464322;32;34342;-77
2023/09/02 10:42:42;;;;;;;;;;;;;;;39.74;23.69;100258.75;4460948;32;31938;-78
2023/09/02 10:45:09;;;;;;;;;;;;;;;39.53;23.59;100261.13;4465841;32;34953;-78
2023/09/02 10:47:39;;;;;;;;;;;;;;;39.43;23.46;100255.47;4464537;32;35009;-78
2023/09/02 10:50:07;;;;;;;;;;;;;;;39.95;23.13;100251.00;4466084;32;35157;-78
2023/09/02 10:52:34;;;;;;;;;;;;;;;40.10;22.81;100249.91;4463902;32;33421;-78
2023/09/02 10:55:03;;;;;;;;;;;;;;;39.94;23.04;100254.66;4464336;32;34977;-78
2023/09/02 10:57:32;;;;;;;;;;;;;;;39.88;23.13;100261.37;4459122;32;33933;-77
2023/09/02 11:00:29;;;;;;;;;;;;;;;39.81;23.01;100243.78;4465127;32;34259;-78
2023/09/02 11:02:57;;;;;;;;;;;;;;;40.21;21.88;100248.25;4455385;32;33168;-79
2023/09/02 11:05:26;;;;;;;;;;;;;;;39.87;22.80;100246.06;4464205;32;33860;-77
2023/09/02 11:07:53;;;;;;;;;;;;;;;40.00;22.95;100248.78;4467695;32;34123;-78
2023/09/02 11:10:21;;;;;;;;;;;;;;;39.63;23.32;100255.94;4467035;32;34778;-78
2023/09/02 11:13:00;;;;;;;;;;;;;;;39.38;23.35;100254.00;4466897;32;33362;-78
2023/09/02 11:15:28;;;;;;;;;;;;;;;40.06;22.06;100259.22;4468627;32;34963;-78
2023/09/02 11:17:55;;;;;;;;;;;;;;;39.95;22.12;100256.41;4464262;32;33774;-77
2023/09/02 11:20:25;;;;;;;;;;;;;;;40.10;22.24;100249.91;4466280;32;34361;-78
2023/09/02 11:22:56;;;;;;;;;;;;;;;40.19;22.08;100264.63;4462782;32;33706;-78
2023/09/02 11:25:30;;;;;;;;;;;;;;;39.64;21.58;100254.94;4452234;32;33586;-78
2023/09/02 11:28:18;;;;;;;;;;;;;;;39.81;21.51;100259.19;4467402;32;34730;-77
2023/09/02 11:31:04;;;;;;;;;;;;;;;39.38;22.59;100256.72;4455247;32;35181;-77
2023/09/02 11:33:32;;;;;;;;;;;;;;;39.54;22.20;100267.41;4463136;32;33346;-77
2023/09/02 11:36:03;;;;;;;;;;;;;;;39.25;23.71;100260.28;4447302;32;33412;-78
2023/09/02 11:38:33;;;;;;;;;;;;;;;38.94;23.57;100247.88;4465262;32;33950;-78
2023/09/02 11:41:01;;;;;;;;;;;;;;;39.65;22.50;100249.41;4466957;32;34612;-77
2023/09/02 11:43:32;;;;;;;;;;;;;;;39.43;22.54;100257.28;4468270;32;33390;-77
2023/09/02 11:46:00;;;;;;;;;;;;;;;39.37;22.85;100249.56;4465170;32;34233;-78
2023/09/02 11:48:27;;;;;;;;;;;;;;;39.51;23.30;100252.22;4463258;32;34771;-77
2023/09/02 11:50:58;;;;;;;;;;;;;;;39.54;22.46;100260.13;4469590;32;35152;-77
2023/09/02 11:53:26;;;;;;;;;;;;;;;39.25;23.03;100252.16;4461040;32;33780;-78
2023/09/02 11:55:54;;;;;;;;;;;;;;;39.48;22.53;100247.88;4463141;32;33296;-77
2023/09/02 11:58:21;;;;;;;;;;;;;;;39.88;22.37;100249.69;4462423;32;34176;-78
2023/09/02 12:00:49;;;;;;;;;;;;;;;39.77;22.38;100246.81;4466751;32;34057;-78
2023/09/02 12:03:22;;;;;;;;;;;;;;;40.27;21.21;100245.94;4461812;32;33738;-78
2023/09/02 12:05:51;;;;;;;;;;;;;;;39.57;22.14;100254.50;4463522;32;33993;-78
2023/09/02 12:08:19;;;;;;;;;;;;;;;40.13;21.80;100250.66;4469625;32;33845;-77
2023/09/02 12:10:46;;;;;;;;;;;;;;;40.32;21.51;100248.38;4468788;32;35040;-78
2023/09/02 12:13:15;;;;;;;;;;;;;;;39.65;22.38;100249.41;4467021;32;34424;-78
2023/09/02 12:15:48;;;;;;;;;;;;;;;39.89;22.36;100245.97;4461340;32;35030;-77
2023/09/02 12:18:15;;;;;;;;;;;;;;;39.89;22.65;100245.97;4468917;32;33848;-77
2023/09/02 12:20:43;;;;;;;;;;;;;;;39.64;22.84;100247.69;4467790;32;33925;-77
2023/09/02 12:23:10;;;;;;;;;;;;;;;39.51;22.72;100247.66;4460640;32;33625;-77
2023/09/02 12:25:39;;;;;;;;;;;;;;;39.57;22.63;100248.22;4463060;32;34304;-77
2023/09/02 12:28:10;;;;;;;;;;;;;;;39.40;23.21;100243.94;4460510;32;35635;-77